This is the latest recevied weather packets stored in our database for station/object M3NIC-5. If no packets are shown the sender has not sent any weather packets the latest 10 day(s).
| Time | Temp. | Humidity | Pressure | Rain* | Wind** | Luminosity | Snow |
|---|---|---|---|---|---|---|---|
| 1778412604 | 13.33° C | 68% | 1016.9 hPa | 0 mm | - | 162 W/m² | - |
| 1778400004 | 11.67° C | 79% | 1017.1 hPa | 0 mm | - | 216 W/m² | - |
| 1778396404 | 10.56° C | 83% | 1017.4 hPa | 0 mm | - | 102 W/m² | - |
| 1778391003 | 10.56° C | 85% | 1017.5 hPa | 0 mm | - | 0 W/m² | - |
| 1778389203 | 10.56° C | 85% | 1017.5 hPa | 0 mm | - | 0 W/m² | - |
| 1778380205 | 11.11° C | 76% | 1017.7 hPa | 0 mm | - | 0 W/m² | - |
| 1778376604 | 11.11° C | 75% | 1018 hPa | 0 mm | - | 0 W/m² | - |
| 1778374805 | 11.11° C | 74% | 1017.9 hPa | 0 mm | - | 0 W/m² | - |
| 1778373004 | 11.11° C | 72% | 1017.8 hPa | 0 mm | - | 0 W/m² | - |
| 1778358605 | 12.78° C | 57% | 1017.9 hPa | 0 mm | - | 0 W/m² | - |
| 1778349605 | 17.78° C | 53% | 1016.9 hPa | 0 mm | - | 0 W/m² | - |
| 1778346004 | 18.89° C | 48% | 1016.4 hPa | 0 mm | - | 97 W/m² | - |
| 1778319004 | 18.89° C | 55% | 1018.7 hPa | 0 mm | - | 635 W/m² | - |
| 1778313605 | 16.11° C | 67% | 1019 hPa | 0 mm | - | 459 W/m² | - |
| 1778304604 | 9.44° C | 91% | 1019 hPa | 0 mm | - | 0 W/m² | - |
| 1778288403 | 9.44° C | 83% | 1019.4 hPa | 0 mm | - | 0 W/m² | - |
| 1778275805 | 10.56° C | 78% | 1019.5 hPa | 0 mm | - | 0 W/m² | - |
| 1778239803 | 15.56° C | 65% | 1018.6 hPa | 0 mm | - | 473 W/m² | - |
| 1778234405 | 15.56° C | 72% | 1018.6 hPa | 0 mm | - | 696 W/m² | - |
| 1778212804 | 7.22° C | 94% | 1017.6 hPa | 0 mm | - | 0 W/m² | - |
| 1778207403 | 7.22° C | 94% | 1017.4 hPa | 0 mm | - | 0 W/m² | - |
| 1778196604 | 7.78° C | 91% | 1017.9 hPa | 0 mm | - | 0 W/m² | - |
| 1778169604 | 14.44° C | 61% | 1017.2 hPa | 0 mm | - | 454 W/m² | - |
| 1778166003 | 14.44° C | 58% | 1017.5 hPa | 0 mm | - | 589 W/m² | - |
* Rain latest hour (hover to see other rain measurements)
** Current wind speed in m/s (hover to see current wind gust speed)